CheckWX is a tool to help pilots better visualize weather data.  It is not intended as a substitute for an official pre-flight weather briefing.

12:23:14 UTC

HAAB TAF
Addis Ababa Bole International Airport
Addis Ababa, Ethiopia
TAF HAAB 220930Z 2212/2318 09010KT 9999 SCT030 FEW100 BECMG 2212/2215 12010KT SCT029

Mar-22@
12:00 UTC

Mar-22 @ 12:00 UTC

Mar-23@
18:00 UTC

Mar-23 @ 18:00 UTC

TAF HAAB 220930Z 2212/2318 09010KT 9999 SCT030 FEW100
Wind
  • 090° at 10 KTS
Cloud Levels
  • Scattered at 3,000' AGL
  • Few at 10,000' AGL

Mar-22@
12:00 UTC

Mar-22 @ 12:00 UTC

Mar-23@
18:00 UTC

Mar-23 @ 18:00 UTC

BECMG 2212/2215 12010KT SCT029

Becoming

Becoming Conditions expected by Fri, Mar 22, 2019 @ 15:00 UTC

Wind
  • 120° at 10 KTS
Cloud Levels
  • Scattered at 2,900' AGL